Time;durP1;ratioP1;P1;durP2;ratioP2;P2;SDS_P1;SDS_P2;PMS_P1;PMS_P2;Temp;Humidity;BMP_temperature;BMP_pressure;BME280_temperature;BME280_humidity;BME280_pressure;Samples;Min_cycle;Max_cycle;Signal;HPM_P1;HPM_P2
2021/07/29 00:00:07;;;;;;;22.00;11.70;;;;;;;22.07;73.47;99058.23;1756904;80;21971;-74
2021/07/29 00:02:34;;;;;;;17.48;11.53;;;;;;;22.03;73.26;99055.45;1758691;80;21533;-75
2021/07/29 00:05:01;;;;;;;14.73;10.82;;;;;;;21.98;73.17;99057.28;1757664;81;20989;-74
2021/07/29 00:07:27;;;;;;;19.07;11.20;;;;;;;21.94;73.23;99062.13;1753005;81;21195;-75
2021/07/29 00:09:53;;;;;;;11.63;10.20;;;;;;;21.88;73.49;99054.14;1756375;80;22074;-75
2021/07/29 00:12:21;;;;;;;17.02;12.30;;;;;;;21.86;73.70;99062.16;1755749;80;20989;-75
2021/07/29 00:14:52;;;;;;;14.98;11.83;;;;;;;21.83;73.96;99062.98;1754344;80;21312;-75
2021/07/29 00:20:06;;;;;;;16.90;11.48;;;;;;;21.75;74.40;99057.97;1712756;81;21518;-76
2021/07/29 00:22:33;;;;;;;21.62;12.13;;;;;;;21.74;74.42;99054.17;1757868;81;21048;-75
2021/07/29 00:25:07;;;;;;;17.87;11.93;;;;;;;21.75;74.40;99058.59;1757081;80;21009;-73
2021/07/29 00:27:35;;;;;;;14.90;10.65;;;;;;;21.74;74.34;99061.99;1750594;81;21045;-74
2021/07/29 00:30:04;;;;;;;14.68;11.08;;;;;;;21.76;74.26;99061.58;1758733;81;20981;-75
2021/07/29 00:32:31;;;;;;;14.93;11.38;;;;;;;21.74;74.53;99062.58;1753910;81;21032;-74
2021/07/29 00:34:57;;;;;;;15.43;10.85;;;;;;;21.75;74.60;99067.00;1757594;79;21031;-74
2021/07/29 00:37:23;;;;;;;12.07;10.15;;;;;;;21.76;74.46;99067.99;1756632;81;21656;-75
2021/07/29 00:39:50;;;;;;;16.85;11.73;;;;;;;21.77;74.43;99068.77;1756113;81;20977;-74
2021/07/29 00:42:16;;;;;;;14.13;10.78;;;;;;;21.75;74.36;99065.60;1760125;81;21017;-74
2021/07/29 00:44:43;;;;;;;15.40;11.38;;;;;;;21.74;74.16;99069.00;1756961;80;21029;-72
2021/07/29 00:47:10;;;;;;;17.87;11.88;;;;;;;21.73;73.84;99065.20;1753191;81;21577;-73
2021/07/29 00:49:37;;;;;;;16.07;11.28;;;;;;;21.67;74.12;99066.22;1756323;81;21541;-73
2021/07/29 00:52:06;;;;;;;15.08;10.82;;;;;;;21.60;74.22;99068.45;1759195;81;21025;-74
2021/07/29 00:54:34;;;;;;;19.37;10.35;;;;;;;21.55;74.46;99067.47;1756926;81;20997;-74
2021/07/29 00:57:00;;;;;;;13.45;10.68;;;;;;;21.51;74.74;99059.08;1727020;80;21016;-74
2021/07/29 00:59:27;;;;;;;15.28;10.48;;;;;;;21.49;75.07;99056.50;1726590;81;21013;-74
2021/07/29 01:01:54;;;;;;;14.68;12.13;;;;;;;21.50;75.16;99060.89;1757907;80;21154;-74
2021/07/29 01:04:22;;;;;;;15.88;11.03;;;;;;;21.50;74.99;99064.49;1755643;80;20977;-74
2021/07/29 01:06:49;;;;;;;18.65;11.63;;;;;;;21.50;74.85;99065.90;1758780;81;21025;-74
2021/07/29 01:09:15;;;;;;;18.25;12.45;;;;;;;21.51;74.71;99059.70;1757909;81;21542;-74
2021/07/29 01:11:43;;;;;;;17.60;12.13;;;;;;;21.49;74.63;99057.90;1759126;80;21476;-74
2021/07/29 01:14:12;;;;;;;15.00;11.25;;;;;;;21.47;74.88;99060.30;1754535;81;22272;-74
2021/07/29 01:16:38;;;;;;;13.05;10.20;;;;;;;21.44;74.93;99059.72;1757372;81;21509;-75
2021/07/29 01:19:06;;;;;;;15.48;10.35;;;;;;;21.42;75.06;99057.92;1755797;80;21130;-75
2021/07/29 01:21:33;;;;;;;16.40;12.30;;;;;;;21.43;74.87;99061.71;1756275;80;21033;-74
2021/07/29 01:24:01;;;;;;;16.97;12.43;;;;;;;21.45;74.54;99064.11;1758470;81;21446;-75
2021/07/29 01:26:27;;;;;;;16.57;12.25;;;;;;;21.45;74.46;99063.52;1759081;80;21524;-75
2021/07/29 01:28:57;;;;;;;20.00;12.40;;;;;;;21.46;74.47;99067.12;1757213;81;21001;-76
2021/07/29 01:31:24;;;;;;;19.25;13.68;;;;;;;21.44;74.58;99074.53;1755633;81;21021;-75
2021/07/29 01:33:51;;;;;;;16.15;12.70;;;;;;;21.47;74.67;99079.32;1754026;81;20997;-74
2021/07/29 01:36:17;;;;;;;20.30;13.35;;;;;;;21.52;74.39;99076.10;1779625;80;21529;-75
2021/07/29 01:38:46;;;;;;;21.20;12.85;;;;;;;21.57;74.25;99076.88;1786091;80;22090;-75
2021/07/29 01:41:12;;;;;;;17.12;12.55;;;;;;;21.61;74.17;99081.88;1784062;80;21075;-74
2021/07/29 01:43:39;;;;;;;15.23;13.13;;;;;;;21.64;74.04;99081.86;1784987;79;21470;-75
2021/07/29 01:46:05;;;;;;;18.05;13.35;;;;;;;21.67;73.99;99083.04;1785570;80;21509;-74
2021/07/29 01:48:33;;;;;;;20.25;12.93;;;;;;;21.69;73.94;99082.62;1782583;80;21036;-73
2021/07/29 01:51:00;;;;;;;21.85;14.55;;;;;;;21.70;73.98;99085.02;1785382;80;21819;-74
2021/07/29 01:53:27;;;;;;;19.12;14.80;;;;;;;21.73;74.09;99091.83;1785838;80;21635;-76
2021/07/29 01:55:54;;;;;;;26.12;15.23;;;;;;;21.75;74.13;99091.61;1784125;80;20996;-74
2021/07/29 01:58:20;;;;;;;18.23;13.95;;;;;;;21.79;74.06;99089.41;1783260;80;21028;-75
2021/07/29 02:00:48;;;;;;;18.17;14.83;;;;;;;21.79;74.00;99080.41;1781761;80;21072;-75
2021/07/29 02:03:15;;;;;;;23.57;15.05;;;;;;;21.80;73.90;99083.42;1785111;80;21132;-74
2021/07/29 02:05:41;;;;;;;21.45;15.05;;;;;;;21.82;73.84;99083.80;1786478;80;20988;-74
2021/07/29 02:08:08;;;;;;;28.42;15.75;;;;;;;21.80;74.13;99081.22;1785401;80;20996;-74
2021/07/29 02:10:35;;;;;;;23.83;14.95;;;;;;;21.72;74.33;99081.22;1785988;80;21008;-74
2021/07/29 02:13:01;;;;;;;20.52;14.28;;;;;;;21.69;74.56;99078.42;1785876;80;21028;-74
2021/07/29 02:15:28;;;;;;;21.48;14.38;;;;;;;21.66;74.81;99074.45;1785240;80;21551;-74
2021/07/29 02:17:59;;;;;;;22.70;14.70;;;;;;;21.63;74.97;99077.45;1784524;79;21052;-75
2021/07/29 02:20:27;;;;;;;20.70;14.53;;;;;;;21.61;75.14;99066.45;1785217;80;21040;-75
2021/07/29 02:22:54;;;;;;;16.40;13.78;;;;;;;21.62;75.27;99066.05;1781370;80;21020;-75
2021/07/29 02:25:22;;;;;;;18.57;13.45;;;;;;;21.64;75.38;99055.83;1785467;80;21036;-75
2021/07/29 02:27:48;;;;;;;22.05;14.83;;;;;;;21.65;75.41;99053.21;1784183;80;21518;-74
2021/07/29 02:30:15;;;;;;;19.67;14.53;;;;;;;21.67;75.31;99060.62;1784211;80;21075;-74
2021/07/29 02:32:41;;;;;;;19.05;14.05;;;;;;;21.69;75.21;99058.80;1784915;80;20973;-74
2021/07/29 02:35:09;;;;;;;19.75;14.68;;;;;;;21.70;75.18;99055.59;1784469;79;21135;-75
2021/07/29 02:37:36;;;;;;;19.55;14.50;;;;;;;21.70;75.35;99047.80;1780970;80;21045;-75
2021/07/29 02:40:02;;;;;;;22.07;14.47;;;;;;;21.70;75.39;99049.98;1781904;80;21814;-75
2021/07/29 02:42:30;;;;;;;18.35;13.43;;;;;;;21.72;75.30;99046.77;1782407;80;20973;-75
2021/07/29 02:44:57;;;;;;;22.20;14.35;;;;;;;21.75;75.35;99049.56;1780757;80;21489;-74
2021/07/29 02:47:23;;;;;;;23.60;14.95;;;;;;;21.78;75.26;99049.36;1781488;80;21032;-74
2021/07/29 02:49:49;;;;;;;17.87;14.47;;;;;;;21.78;75.54;99046.56;1782184;80;21048;-74
2021/07/29 02:52:16;;;;;;;21.25;15.55;;;;;;;21.75;75.64;99043.17;1782377;79;21477;-74
2021/07/29 02:54:44;;;;;;;19.25;14.95;;;;;;;21.75;75.73;99036.17;1782968;80;21751;-74
2021/07/29 02:57:11;;;;;;;19.75;14.55;;;;;;;21.77;75.67;99031.73;1780832;80;21043;-75
2021/07/29 02:59:37;;;;;;;18.52;14.98;;;;;;;21.78;75.87;99031.14;1779740;80;21021;-74
2021/07/29 03:02:04;;;;;;;21.75;15.23;;;;;;;21.83;75.79;99031.34;1783976;80;21036;-75
2021/07/29 03:04:31;;;;;;;18.73;13.85;;;;;;;21.86;75.72;99022.91;1782861;80;22096;-75
2021/07/29 03:06:59;;;;;;;22.27;15.78;;;;;;;21.91;75.78;99022.27;1783961;80;21101;-75
2021/07/29 03:09:26;;;;;;;20.10;14.50;;;;;;;21.92;75.88;99019.67;1781438;80;21004;-75
2021/07/29 03:11:52;;;;;;;18.32;14.18;;;;;;;21.93;75.95;99013.66;1781867;79;21493;-76
2021/07/29 03:14:19;;;;;;;20.70;14.28;;;;;;;21.96;75.89;99010.63;1783184;80;21043;-75
2021/07/29 03:16:47;;;;;;;22.70;14.95;;;;;;;22.00;75.80;99018.42;1782133;80;20981;-75
2021/07/29 03:19:14;;;;;;;17.65;14.63;;;;;;;22.05;75.70;99014.38;1779860;80;21516;-75
2021/07/29 03:21:41;;;;;;;22.13;14.87;;;;;;;22.06;75.70;99012.55;1782623;80;20980;-75
2021/07/29 03:24:07;;;;;;;19.55;14.68;;;;;;;22.09;75.79;99015.16;1783618;80;21063;-75
2021/07/29 03:26:36;;;;;;;20.12;13.40;;;;;;;22.12;75.80;99008.72;1778342;80;20981;-75
2021/07/29 03:29:02;;;;;;;20.05;13.58;;;;;;;22.15;75.93;99014.09;1782552;80;21506;-75
2021/07/29 03:31:29;;;;;;;18.57;13.08;;;;;;;22.19;76.04;99012.08;1782712;80;21064;-75
2021/07/29 03:33:56;;;;;;;17.42;13.58;;;;;;;22.23;76.40;99012.23;1782802;80;21040;-75
2021/07/29 03:36:22;;;;;;;17.75;13.70;;;;;;;22.28;76.67;99007.41;1772163;79;21013;-75
2021/07/29 03:38:48;;;;;;;22.48;14.38;;;;;;;22.31;76.60;99009.38;1764804;80;21048;-76
2021/07/29 03:41:16;;;;;;;19.10;13.72;;;;;;;22.34;76.46;99001.53;1761780;80;21040;-75
2021/07/29 03:43:42;;;;;;;18.90;13.35;;;;;;;22.39;76.38;98996.88;1763330;80;21068;-75
2021/07/29 03:46:09;;;;;;;19.67;13.18;;;;;;;22.45;76.23;98998.02;1767911;80;21032;-75
2021/07/29 03:48:36;;;;;;;20.92;13.50;;;;;;;22.53;76.48;98999.36;1764039;80;20988;-75
2021/07/29 03:51:03;;;;;;;23.27;13.80;;;;;;;22.58;76.64;99006.74;1766154;80;21028;-74
2021/07/29 03:53:29;;;;;;;19.37;12.45;;;;;;;22.64;76.65;99002.89;1766155;80;20981;-75
2021/07/29 03:55:56;;;;;;;18.32;13.80;;;;;;;22.71;76.66;99003.42;1762755;80;21083;-74
2021/07/29 03:58:22;;;;;;;22.00;14.15;;;;;;;22.75;76.61;98998.59;1763813;80;21474;-74
2021/07/29 04:00:48;;;;;;;21.25;14.20;;;;;;;22.78;76.46;98991.33;1769644;79;20988;-74
2021/07/29 04:03:15;;;;;;;19.85;14.18;;;;;;;22.82;76.69;99001.92;1761266;80;20994;-74
2021/07/29 04:05:42;;;;;;;23.83;13.43;;;;;;;22.85;76.87;99003.89;1764053;80;21530;-74
2021/07/29 04:08:09;;;;;;;16.80;13.58;;;;;;;22.91;76.98;99004.25;1763508;80;21021;-74
2021/07/29 04:10:36;;;;;;;20.95;12.93;;;;;;;22.96;77.00;99005.97;1761719;80;21012;-74
2021/07/29 04:13:02;;;;;;;17.17;12.93;;;;;;;23.02;77.22;99012.54;1762802;80;21691;-76
2021/07/29 04:15:29;;;;;;;17.73;14.40;;;;;;;23.06;77.32;99009.09;1763006;80;21490;-75
2021/07/29 04:17:55;;;;;;;16.75;13.00;;;;;;;23.10;77.21;99011.23;1764048;80;21990;-75
2021/07/29 04:20:22;;;;;;;19.32;13.32;;;;;;;23.14;77.05;99009.80;1763017;80;21470;-75
2021/07/29 04:22:48;;;;;;;17.05;13.20;;;;;;;23.22;76.92;99006.48;1764425;80;21040;-76
2021/07/29 04:25:15;;;;;;;20.72;13.93;;;;;;;23.31;76.69;99007.39;1761885;80;21008;-75
2021/07/29 04:27:41;;;;;;;18.17;11.83;;;;;;;23.40;76.30;99004.11;1763379;80;21567;-75
2021/07/29 04:30:08;;;;;;;20.25;12.78;;;;;;;23.47;75.57;98997.59;1764535;79;21504;-75
2021/07/29 04:32:36;;;;;;;21.80;13.30;;;;;;;23.58;75.12;98996.84;1763361;79;20992;-75
2021/07/29 04:35:04;;;;;;;18.45;12.47;;;;;;;23.71;74.73;98994.87;1763846;80;21005;-75
2021/07/29 04:37:31;;;;;;;17.62;12.00;;;;;;;23.81;75.19;98997.33;1760836;80;21029;-75
2021/07/29 04:39:57;;;;;;;17.85;12.40;;;;;;;23.88;74.70;99000.65;1765093;80;21092;-75
2021/07/29 04:42:24;;;;;;;16.15;12.15;;;;;;;23.98;74.15;99001.10;1764884;80;21143;-75
2021/07/29 04:44:51;;;;;;;14.90;11.22;;;;;;;24.09;73.55;98995.92;1763030;80;21560;-75
2021/07/29 04:47:17;;;;;;;13.88;10.98;;;;;;;24.21;72.75;98997.38;1761570;80;21545;-73
2021/07/29 04:49:44;;;;;;;14.60;10.08;;;;;;;24.30;72.08;98999.82;1764041;80;21573;-75
2021/07/29 04:52:10;;;;;;;12.47;10.58;;;;;;;24.39;71.62;99006.91;1764606;80;21001;-75
2021/07/29 04:54:37;;;;;;;14.98;10.85;;;;;;;24.45;71.61;99000.97;1764530;80;21481;-75
2021/07/29 04:57:04;;;;;;;20.55;10.63;;;;;;;24.48;72.01;99004.33;1762995;80;21016;-74
2021/07/29 04:59:31;;;;;;;12.07;10.38;;;;;;;24.51;72.37;98999.88;1763441;80;20958;-75
2021/07/29 05:01:58;;;;;;;14.53;9.55;;;;;;;24.55;71.84;99002.81;1763265;80;21607;-73
2021/07/29 05:04:24;;;;;;;12.70;9.03;;;;;;;24.62;71.39;98994.84;1764019;80;21017;-74
2021/07/29 05:06:50;;;;;;;14.28;9.05;;;;;;;24.70;70.49;98997.54;1764066;80;21028;-73
2021/07/29 05:09:18;;;;;;;15.85;9.25;;;;;;;24.80;70.17;99000.14;1774268;79;21056;-74
2021/07/29 05:11:44;;;;;;;9.98;8.48;;;;;;;24.93;69.93;98993.91;1767512;79;21060;-73
2021/07/29 05:14:11;;;;;;;23.70;9.45;;;;;;;25.06;69.18;98995.46;1765862;80;21028;-74
2021/07/29 05:16:38;;;;;;;18.27;9.68;;;;;;;25.21;68.24;98992.37;1767676;79;21139;-74
2021/07/29 05:19:04;;;;;;;14.25;9.25;;;;;;;25.34;68.00;98996.12;1767128;80;21012;-74
2021/07/29 05:21:31;;;;;;;14.18;10.28;;;;;;;25.46;67.11;98980.56;1764543;80;21878;-73
2021/07/29 05:23:58;;;;;;;12.95;9.30;;;;;;;25.59;66.09;98980.67;1763393;80;21567;-75
2021/07/29 05:26:24;;;;;;;13.98;8.83;;;;;;;25.68;65.14;98977.29;1762127;80;21036;-74
2021/07/29 05:28:52;;;;;;;12.20;7.53;;;;;;;25.76;65.00;98973.07;1762507;80;21005;-75
2021/07/29 05:31:19;;;;;;;8.48;7.58;;;;;;;25.83;64.63;98975.57;1761057;80;21069;-74
2021/07/29 05:33:47;;;;;;;8.58;7.67;;;;;;;25.91;63.10;98971.95;1763549;80;21532;-75
2021/07/29 05:36:14;;;;;;;8.45;7.55;;;;;;;25.98;62.75;98968.97;1768883;80;21529;-74
2021/07/29 05:38:41;;;;;;;12.33;8.08;;;;;;;26.06;62.06;98973.80;1784143;80;21013;-75
2021/07/29 05:41:08;;;;;;;13.53;7.58;;;;;;;26.13;60.87;98969.41;1784877;80;21528;-74
2021/07/29 05:43:36;;;;;;;19.45;6.80;;;;;;;26.21;60.60;98967.19;1782290;79;21107;-76
2021/07/29 05:46:10;;;;;;;12.95;7.78;;;;;;;26.25;60.05;98968.67;1786305;80;21040;-76
2021/07/29 05:48:38;;;;;;;22.60;8.33;;;;;;;26.33;59.36;98965.67;1785554;80;21047;-72
2021/07/29 05:51:05;;;;;;;13.85;7.50;;;;;;;26.38;59.55;98970.82;1783848;80;21036;-73
2021/07/29 05:53:31;;;;;;;13.22;7.00;;;;;;;26.42;59.47;98965.89;1784224;80;21497;-74
2021/07/29 05:55:59;;;;;;;11.60;6.97;;;;;;;26.45;59.36;98961.38;1784539;80;21523;-73
2021/07/29 05:58:25;;;;;;;19.25;8.03;;;;;;;26.47;59.51;98966.77;1787975;78;21506;-75
2021/07/29 06:00:52;;;;;;;10.20;7.10;;;;;;;26.49;58.78;98962.86;1785073;79;21052;-75
2021/07/29 06:03:18;;;;;;;11.85;7.30;;;;;;;26.55;58.42;98962.31;1784323;80;21031;-74
2021/07/29 06:05:46;;;;;;;10.78;7.03;;;;;;;26.59;58.30;98965.85;1784308;80;21031;-74
2021/07/29 06:08:13;;;;;;;12.88;8.20;;;;;;;26.61;58.30;98967.62;1783052;80;21148;-75
2021/07/29 06:10:39;;;;;;;11.43;7.37;;;;;;;26.57;58.58;98962.06;1779743;80;21078;-74
2021/07/29 06:13:06;;;;;;;14.47;7.78;;;;;;;26.64;58.52;98965.92;1785015;80;21039;-75
2021/07/29 06:15:33;;;;;;;14.05;7.85;;;;;;;26.71;58.72;98958.67;1783297;80;21039;-73
2021/07/29 06:18:01;;;;;;;8.40;7.33;;;;;;;26.79;58.60;98964.91;1784603;80;21043;-74
2021/07/29 06:20:29;;;;;;;32.45;10.65;;;;;;;26.85;58.34;98962.50;1784705;80;21532;-74
2021/07/29 06:22:55;;;;;;;18.95;8.53;;;;;;;26.90;59.34;98963.21;1784620;80;21063;-75
2021/07/29 06:25:23;;;;;;;16.40;8.35;;;;;;;26.89;60.64;98952.52;1783895;80;21067;-75
2021/07/29 06:27:49;;;;;;;11.73;7.58;;;;;;;26.89;60.58;98956.76;1784069;80;21009;-74
2021/07/29 06:30:16;;;;;;;15.00;7.72;;;;;;;26.90;60.62;98951.91;1784335;79;21573;-75
2021/07/29 06:32:43;;;;;;;12.47;7.55;;;;;;;26.92;60.63;98952.27;1784002;80;21621;-75
2021/07/29 06:35:10;;;;;;;19.27;8.15;;;;;;;26.96;61.04;98957.98;1784304;80;21667;-74
2021/07/29 06:37:38;;;;;;;13.13;7.62;;;;;;;27.02;60.46;98954.60;1764608;79;21537;-75
2021/07/29 06:40:06;;;;;;;10.90;7.65;;;;;;;27.05;59.71;98952.32;1756338;81;21083;-76
2021/07/29 06:42:33;;;;;;;13.35;7.92;;;;;;;27.07;59.65;98954.86;1755245;81;21033;-77
2021/07/29 06:44:59;;;;;;;11.12;8.20;;;;;;;27.09;59.46;98955.20;1754706;81;21775;-77
2021/07/29 06:47:27;;;;;;;13.60;8.43;;;;;;;27.14;58.89;98953.88;1756642;81;21573;-76
2021/07/29 06:49:54;;;;;;;11.40;7.58;;;;;;;27.19;59.39;98955.36;1755918;81;21063;-75
2021/07/29 06:52:20;;;;;;;9.13;7.70;;;;;;;27.25;58.77;98954.16;1755519;80;21048;-76
2021/07/29 06:54:46;;;;;;;12.05;7.80;;;;;;;27.29;58.53;98961.92;1757186;80;21373;-77
2021/07/29 06:57:13;;;;;;;9.25;8.23;;;;;;;27.33;59.03;98962.63;1753576;81;21641;-76
2021/07/29 06:59:39;;;;;;;9.95;7.70;;;;;;;27.35;59.12;98961.53;1756305;81;21005;-76
2021/07/29 07:02:06;;;;;;;8.85;7.72;;;;;;;27.40;59.16;98961.62;1756742;81;21165;-75
2021/07/29 07:04:32;;;;;;;12.25;8.38;;;;;;;27.46;58.73;98962.02;1756098;81;21037;-75
2021/07/29 07:06:58;;;;;;;9.93;7.87;;;;;;;27.56;58.84;98963.55;1756373;81;21118;-76
2021/07/29 07:09:25;;;;;;;10.30;7.45;;;;;;;27.66;58.58;98957.37;1755441;81;21497;-76
2021/07/29 07:11:53;;;;;;;10.72;8.58;;;;;;;27.75;58.19;98956.12;1753202;80;21071;-75
2021/07/29 07:14:19;;;;;;;11.38;8.18;;;;;;;27.82;57.61;98959.34;1757304;81;21039;-77
2021/07/29 07:16:48;;;;;;;12.18;8.38;;;;;;;27.92;58.04;98955.38;1756734;81;21001;-76
2021/07/29 07:19:14;;;;;;;12.63;7.72;;;;;;;28.02;57.86;98953.44;1756498;81;21052;-75
2021/07/29 07:21:41;;;;;;;12.18;8.25;;;;;;;28.12;56.87;98954.32;1756450;81;21112;-76
2021/07/29 07:24:07;;;;;;;10.68;8.63;;;;;;;28.22;55.64;98945.94;1756493;81;21613;-74
2021/07/29 07:26:33;;;;;;;10.78;8.18;;;;;;;28.26;55.70;98952.25;1756483;81;21075;-76
2021/07/29 07:29:00;;;;;;;10.53;8.03;;;;;;;28.25;55.29;98949.27;1756839;81;21553;-75
2021/07/29 07:31:26;;;;;;;20.55;8.83;;;;;;;28.19;55.64;98946.21;1757239;80;21005;-76
2021/07/29 07:33:54;;;;;;;12.25;8.78;;;;;;;28.25;55.91;98941.55;1755910;81;21538;-76
2021/07/29 07:36:21;;;;;;;11.22;9.03;;;;;;;28.35;56.01;98945.92;1756155;81;21509;-76
2021/07/29 07:38:53;;;;;;;16.75;8.80;;;;;;;28.45;55.70;98947.59;1756625;81;21029;-77
2021/07/29 07:41:21;;;;;;;9.95;8.18;;;;;;;28.56;55.70;98941.53;1755255;80;21131;-76
2021/07/29 07:43:49;;;;;;;10.75;7.45;;;;;;;28.68;55.63;98944.16;1757539;80;22276;-75
2021/07/29 07:46:16;;;;;;;9.20;8.18;;;;;;;28.74;54.89;98945.16;1757922;81;21513;-74
2021/07/29 07:48:42;;;;;;;8.80;7.62;;;;;;;28.80;54.58;98941.89;1755017;81;21103;-74
2021/07/29 07:51:08;;;;;;;11.35;7.60;;;;;;;28.86;54.36;98936.44;1760783;80;21004;-75
2021/07/29 07:53:36;;;;;;;11.22;7.25;;;;;;;28.92;54.40;98938.03;1758160;79;21589;-73
2021/07/29 07:56:04;;;;;;;17.77;7.45;;;;;;;29.02;54.25;98933.24;1765309;81;21024;-74
2021/07/29 07:58:33;;;;;;;9.60;7.80;;;;;;;29.10;53.61;98932.36;1764027;79;21689;-75
2021/07/29 08:01:05;;;;;;;9.10;7.28;;;;;;;29.16;53.59;98932.72;1765685;81;21029;-76
2021/07/29 08:03:32;;;;;;;10.50;7.60;;;;;;;29.18;53.17;98927.20;1762707;80;21072;-74
2021/07/29 08:06:03;;;;;;;8.78;6.62;;;;;;;29.22;53.60;98931.50;1761068;81;21116;-77
2021/07/29 08:08:29;;;;;;;14.23;8.18;;;;;;;29.30;53.23;98925.53;1761566;81;21637;-73
2021/07/29 08:10:55;;;;;;;11.95;8.50;;;;;;;29.38;53.39;98934.72;1760731;81;21117;-74
2021/07/29 08:13:23;;;;;;;16.52;7.25;;;;;;;29.47;54.23;98933.17;1753617;81;21029;-74
2021/07/29 08:15:49;;;;;;;19.15;7.40;;;;;;;29.51;53.19;98926.09;1753890;81;21068;-75
2021/07/29 08:18:17;;;;;;;9.35;7.53;;;;;;;29.56;53.02;98933.85;1758715;81;21029;-77
2021/07/29 08:20:46;;;;;;;15.85;7.92;;;;;;;29.63;53.14;98930.12;1754504;81;21013;-76
2021/07/29 08:23:12;;;;;;;11.57;7.70;;;;;;;29.75;52.87;98931.91;1755527;81;22126;-75
2021/07/29 08:25:38;;;;;;;11.50;7.42;;;;;;;29.88;53.31;98929.75;1759492;81;21627;-74
2021/07/29 08:28:05;;;;;;;12.98;7.80;;;;;;;30.01;52.57;98920.30;1756990;81;21006;-76
2021/07/29 08:30:32;;;;;;;16.75;8.90;;;;;;;30.08;52.08;98924.88;1758485;81;21722;-76
2021/07/29 08:33:07;;;;;;;14.05;10.03;;;;;;;30.09;52.56;98923.02;1758560;81;21197;-76
2021/07/29 08:35:36;;;;;;;11.83;9.30;;;;;;;30.10;53.91;98920.95;1757916;81;21068;-75
2021/07/29 08:38:03;;;;;;;16.62;10.10;;;;;;;30.08;53.80;98922.05;1756968;80;21041;-75
2021/07/29 08:40:30;;;;;;;10.63;9.30;;;;;;;30.03;53.86;98916.98;1758535;81;21040;-75
2021/07/29 08:42:58;;;;;;;11.60;8.60;;;;;;;30.00;54.58;98913.84;1759804;81;21033;-75
2021/07/29 08:45:24;;;;;;;17.73;9.93;;;;;;;30.08;55.45;98912.91;1754625;81;21040;-76
2021/07/29 08:47:54;;;;;;;13.93;9.75;;;;;;;30.17;55.18;98915.59;1758114;81;22338;-75
2021/07/29 08:50:21;;;;;;;18.57;9.48;;;;;;;30.22;54.54;98917.22;1756398;80;21028;-73
2021/07/29 08:52:51;;;;;;;10.90;8.98;;;;;;;30.25;54.94;98913.43;1748924;80;21513;-73
2021/07/29 08:55:18;;;;;;;13.85;8.48;;;;;;;30.28;54.58;98908.88;1756352;80;21033;-74
2021/07/29 08:57:44;;;;;;;15.83;8.80;;;;;;;30.30;53.59;98910.59;1752411;81;21115;-74
2021/07/29 09:00:12;;;;;;;12.78;8.10;;;;;;;30.34;53.07;98905.55;1756724;81;21552;-75
2021/07/29 09:02:40;;;;;;;16.82;8.18;;;;;;;30.41;52.45;98909.34;1756526;80;21043;-74
2021/07/29 09:05:20;;;;;;;15.18;7.50;;;;;;;30.44;52.39;98914.06;1757605;81;21029;-75
2021/07/29 09:08:06;;;;;;;13.60;7.03;;;;;;;30.47;51.90;98913.14;1753926;81;21067;-74
2021/07/29 09:10:36;;;;;;;16.05;8.20;;;;;;;30.51;51.39;98911.54;1759127;81;21067;-72
2021/07/29 09:13:15;;;;;;;12.23;7.65;;;;;;;30.48;50.55;98911.87;1726859;81;21452;-72
2021/07/29 09:16:07;;;;;;;19.70;8.55;;;;;;;30.46;50.55;98910.92;1757740;81;21008;-74
2021/07/29 09:18:35;;;;;;;14.05;6.97;;;;;;;30.49;50.85;98907.12;1754282;81;21024;-74
2021/07/29 09:21:13;;;;;;;14.83;7.65;;;;;;;30.51;50.45;98898.13;1755776;80;21028;-75
2021/07/29 09:23:40;;;;;;;13.08;7.85;;;;;;;30.50;49.92;98893.72;1757015;81;21024;-74
2021/07/29 09:26:06;;;;;;;14.23;8.65;;;;;;;30.53;50.72;98892.77;1754353;81;21213;-74
2021/07/29 09:28:39;;;;;;;17.50;8.38;;;;;;;30.55;50.48;98888.83;1758049;81;20982;-73
2021/07/29 09:31:22;;;;;;;14.53;7.60;;;;;;;30.62;50.92;98890.56;1753407;80;21052;-75
2021/07/29 09:34:02;;;;;;;15.63;6.80;;;;;;;30.65;48.83;98883.13;1757005;80;20993;-73
2021/07/29 09:36:32;;;;;;;20.23;7.72;;;;;;;30.71;48.33;98880.59;1752697;81;21530;-74
2021/07/29 09:39:21;;;;;;;17.98;7.08;;;;;;;30.76;48.41;98882.65;1778677;79;21125;-75
2021/07/29 09:41:51;;;;;;;13.88;6.47;;;;;;;30.79;48.39;98882.48;1783693;80;20981;-73
2021/07/29 09:44:40;;;;;;;15.60;6.65;;;;;;;30.80;47.81;98876.15;1784800;80;21043;-74
2021/07/29 09:47:07;;;;;;;13.38;9.10;;;;;;;30.85;48.16;98876.34;1784992;80;21537;-74
2021/07/29 09:49:37;;;;;;;14.35;6.97;;;;;;;30.94;48.46;98877.58;1784891;80;21032;-74
2021/07/29 09:52:05;;;;;;;31.45;8.13;;;;;;;31.04;49.05;98875.49;1784240;80;21160;-75
2021/07/29 09:54:34;;;;;;;13.08;7.50;;;;;;;31.13;48.40;98884.02;1765737;79;20992;-74
2021/07/29 09:57:00;;;;;;;14.65;6.80;;;;;;;31.22;48.33;98880.33;1784149;80;21031;-72
2021/07/29 09:59:27;;;;;;;13.98;5.75;;;;;;;31.20;47.09;98884.30;1782238;80;21087;-74
2021/07/29 10:01:54;;;;;;;21.35;7.00;;;;;;;31.17;46.73;98884.61;1786824;80;21028;-76
2021/07/29 10:04:27;;;;;;;13.88;7.03;;;;;;;31.14;45.22;98880.52;1784539;80;21514;-74
2021/07/29 10:06:54;;;;;;;16.95;7.20;;;;;;;31.17;47.47;98876.73;1784475;80;21048;-74
2021/07/29 10:09:22;;;;;;;13.93;6.62;;;;;;;31.26;47.49;98885.84;1783552;80;21001;-75
2021/07/29 10:11:52;;;;;;;22.25;7.70;;;;;;;31.32;47.08;98879.02;1785920;78;21498;-73
2021/07/29 10:14:46;;;;;;;12.60;6.65;;;;;;;31.39;46.08;98877.12;1785021;80;20977;-75
2021/07/29 10:17:12;;;;;;;14.35;6.45;;;;;;;31.41;45.70;98873.97;1782786;80;21503;-74
2021/07/29 10:20:19;;;;;;;13.88;6.30;;;;;;;31.45;45.56;98868.91;1783240;80;21068;-73
2021/07/29 10:22:44;;;;;;;10.05;5.35;;;;;;;31.51;45.04;98864.75;1756085;80;21605;-73
2021/07/29 10:25:11;;;;;;;14.68;5.87;;;;;;;31.59;44.70;98865.20;1782792;80;21072;-75
2021/07/29 10:27:39;;;;;;;14.30;5.70;;;;;;;31.63;43.67;98864.38;1785150;80;21023;-75
2021/07/29 10:30:39;;;;;;;13.45;5.50;;;;;;;31.67;43.05;98864.20;1784243;80;21126;-74
2021/07/29 10:33:16;;;;;;;12.85;4.62;;;;;;;31.64;42.59;98861.69;1732366;82;21059;-75
2021/07/29 10:35:43;;;;;;;13.08;5.28;;;;;;;31.64;42.87;98857.42;1776660;80;21524;-73
2021/07/29 10:38:10;;;;;;;13.85;5.28;;;;;;;31.66;42.18;98859.16;1773897;80;21111;-75
2021/07/29 10:40:39;;;;;;;15.98;6.58;;;;;;;31.71;42.68;98854.86;1758953;81;21083;-73
2021/07/29 10:43:30;;;;;;;14.63;5.10;;;;;;;31.78;42.35;98845.17;1760749;81;21111;-73
2021/07/29 10:46:01;;;;;;;17.35;5.05;;;;;;;31.79;43.04;98835.34;1757237;81;21087;-73
2021/07/29 10:48:46;;;;;;;15.15;4.97;;;;;;;31.82;43.38;98835.80;1756235;81;21001;-73
2021/07/29 10:51:22;;;;;;;16.37;6.22;;;;;;;31.88;42.90;98838.14;1752616;81;21020;-75
2021/07/29 10:53:53;;;;;;;14.58;4.97;;;;;;;31.92;43.64;98833.70;1758283;81;21088;-75
2021/07/29 10:56:23;;;;;;;13.43;4.70;;;;;;;31.95;42.63;98832.72;1757691;81;20969;-74
2021/07/29 10:58:55;;;;;;;13.90;5.58;;;;;;;31.98;41.77;98832.39;1753713;81;21506;-74
2021/07/29 11:01:24;;;;;;;14.70;5.10;;;;;;;32.00;42.04;98835.55;1757146;81;21064;-73
2021/07/29 11:04:00;;;;;;;18.82;5.97;;;;;;;32.02;42.55;98842.32;1711669;81;21577;-75
2021/07/29 11:06:42;;;;;;;12.45;5.50;;;;;;;32.05;42.70;98829.98;1756831;81;21008;-75
2021/07/29 11:09:15;;;;;;;14.93;6.45;;;;;;;32.08;42.90;98828.20;1753844;81;21068;-75
2021/07/29 11:11:44;;;;;;;16.95;5.58;;;;;;;32.12;42.75;98821.70;1751057;81;21632;-73
2021/07/29 11:14:10;;;;;;;15.45;6.30;;;;;;;32.14;43.03;98829.09;1752995;81;21104;-74
2021/07/29 11:16:37;;;;;;;12.40;5.12;;;;;;;32.19;43.08;98827.66;1757224;81;21314;-77
2021/07/29 11:19:06;;;;;;;11.30;4.75;;;;;;;32.26;42.67;98821.56;1755920;80;21107;-73
2021/07/29 11:21:33;;;;;;;12.85;5.15;;;;;;;32.33;41.83;98811.08;1757369;81;21542;-72
2021/07/29 11:24:00;;;;;;;13.80;5.08;;;;;;;32.37;41.01;98803.91;1757313;81;21791;-75
2021/07/29 11:26:26;;;;;;;14.07;5.47;;;;;;;32.42;40.60;98809.55;1736758;81;20990;-73
2021/07/29 11:29:09;;;;;;;22.05;5.17;;;;;;;32.45;41.20;98806.38;1736970;81;20989;-75